Terminal Aerodrome Forecast
Issued by NWS

Home | Current Version | Previous Version | Text Only | Print | Product List | Glossary On
Versions: 1 2 3 4 5 6 7 8 9 10 11 12 13 14 15 16
000
FTUS46 KSGX 010520
TAFSNA
TAF
KSNA 010520Z 0106/0206 21005KT P6SM SCT007
     FM011000 VRB05KT 5SM BR OVC005
     FM011600 22005KT 6SM HZ SCT008
     FM011900 22010KT P6SM FEW010
     FM020200 VRB05KT P6SM SCT010=

USA.gov is the U.S. government's official web portal to all federal, state and local government web resources and services.